Time;durP1;ratioP1;P1;durP2;ratioP2;P2;SDS_P1;SDS_P2;PMS_P1;PMS_P2;Temp;Humidity;BMP_temperature;BMP_pressure;BME280_temperature;BME280_humidity;BME280_pressure;Samples;Min_cycle;Max_cycle;Signal;HPM_P1;HPM_P2
2022/03/30 00:01:00;;;;;;;;;57.00;42.50;;;;;14.35;57.35;100146.50;5059397;28;47068;-49
2022/03/30 00:03:26;;;;;;;;;64.50;46.00;;;;;14.31;57.61;100136.38;5060017;28;45176;-46
2022/03/30 00:05:52;;;;;;;;;53.25;44.50;;;;;14.30;57.61;100148.09;5060142;28;45387;-48
2022/03/30 00:08:17;;;;;;;;;60.75;45.50;;;;;14.26;57.75;100152.16;5042679;28;45306;-49
2022/03/30 00:10:42;;;;;;;;;66.25;45.50;;;;;14.23;57.94;100142.63;5060200;28;45346;-49
2022/03/30 00:13:10;;;;;;;;;61.00;44.00;;;;;14.18;58.35;100140.50;5059882;28;45168;-49
2022/03/30 00:15:36;;;;;;;;;55.25;43.50;;;;;14.15;58.18;100132.84;5041692;28;45344;-47
2022/03/30 00:18:01;;;;;;;;;56.75;43.50;;;;;14.12;57.63;100133.25;5059606;28;45322;-46
2022/03/30 00:20:27;;;;;;;;;59.00;46.50;;;;;14.08;58.20;100131.94;5059434;28;45353;-49
2022/03/30 00:22:52;;;;;;;;;56.50;42.75;;;;;14.04;58.42;100132.50;5059143;28;45334;-46
2022/03/30 00:25:18;;;;;;;;;64.50;46.00;;;;;13.94;58.87;100133.59;5059260;28;45433;-48
2022/03/30 00:27:46;;;;;;;;;58.25;44.00;;;;;13.94;58.24;100140.78;5059339;28;45247;-46
2022/03/30 00:30:14;;;;;;;;;60.75;44.75;;;;;13.90;58.69;100137.63;5058793;28;47192;-47
2022/03/30 00:32:39;;;;;;;;;66.75;47.75;;;;;13.84;58.92;100127.69;5058838;28;45236;-48
2022/03/30 00:35:06;;;;;;;;;62.50;47.00;;;;;13.86;57.80;100138.19;5059201;28;45353;-47
2022/03/30 00:37:32;;;;;;;;;64.50;45.25;;;;;13.82;59.44;100121.72;5059104;28;45326;-48
2022/03/30 00:39:57;;;;;;;;;59.75;47.00;;;;;13.81;59.89;100127.22;5058735;28;45501;-46
2022/03/30 00:42:24;;;;;;;;;57.25;45.25;;;;;13.84;59.41;100121.50;5057505;28;45337;-46
2022/03/30 00:44:50;;;;;;;;;59.75;43.00;;;;;13.84;59.22;100118.84;5059324;28;45428;-49
2022/03/30 00:47:20;;;;;;;;;59.75;45.00;;;;;13.84;59.94;100121.50;5059064;28;45809;-47
2022/03/30 00:49:46;;;;;;;;;59.50;46.25;;;;;13.81;59.24;100114.69;5058682;28;47232;-46
2022/03/30 00:52:12;;;;;;;;;54.75;44.00;;;;;13.74;58.57;100095.06;5058761;28;45341;-48
2022/03/30 00:54:40;;;;;;;;;64.25;45.25;;;;;13.82;59.94;100108.34;5058716;28;45277;-49
2022/03/30 00:57:08;;;;;;;;;63.00;47.50;;;;;13.83;60.20;100103.81;5059001;28;45455;-47
2022/03/30 00:59:34;;;;;;;;;67.75;47.00;;;;;13.75;60.06;100086.00;5058572;28;45270;-49
2022/03/30 01:02:00;;;;;;;;;63.00;45.75;;;;;13.86;60.31;100100.75;5058321;28;45341;-48
2022/03/30 01:04:28;;;;;;;;;64.25;49.00;;;;;13.81;60.03;100082.59;5058720;28;45322;-49
2022/03/30 01:06:54;;;;;;;;;60.50;43.50;;;;;13.88;60.62;100093.41;5058566;28;45405;-47
2022/03/30 01:09:20;;;;;;;;;60.75;45.50;;;;;13.85;60.29;100088.41;5058295;28;45992;-46
2022/03/30 01:11:47;;;;;;;;;61.00;46.75;;;;;13.90;59.88;100086.00;5058505;28;45472;-47
2022/03/30 01:14:13;;;;;;;;;64.75;48.75;;;;;13.91;60.21;100079.66;5058345;28;45215;-48
2022/03/30 01:16:41;;;;;;;;;63.50;48.75;;;;;13.93;60.63;100077.63;5058085;28;45425;-49
2022/03/30 01:19:08;;;;;;;;;64.75;46.75;;;;;13.95;60.51;100075.63;5058307;28;46225;-47
2022/03/30 01:21:39;;;;;;;;;63.25;46.50;;;;;13.92;60.18;100063.44;5058194;28;45344;-46
2022/03/30 01:24:05;;;;;;;;;63.25;47.00;;;;;13.96;60.13;100069.25;5057338;28;45425;-49
2022/03/30 01:26:31;;;;;;;;;67.75;47.75;;;;;13.91;60.00;100061.78;5058547;28;45365;-47
2022/03/30 01:28:57;;;;;;;;;64.25;48.50;;;;;13.90;60.30;100059.28;5057855;28;46226;-47
2022/03/30 01:34:07;;;;;;;;;64.50;49.00;;;;;13.90;60.62;100061.94;5058295;28;45443;-47
2022/03/30 01:36:35;;;;;;;;;65.75;50.00;;;;;13.90;60.44;100061.94;5057501;28;45367;-46
2022/03/30 01:39:02;;;;;;;;;68.75;50.25;;;;;13.90;61.00;100052.06;5057802;28;46531;-49
2022/03/30 01:41:29;;;;;;;;;62.00;48.00;;;;;13.92;60.74;100049.25;5056781;28;45227;-47
2022/03/30 01:43:54;;;;;;;;;63.00;47.00;;;;;13.90;61.37;100045.91;5058122;28;45319;-47
2022/03/30 01:46:20;;;;;;;;;64.50;47.00;;;;;13.90;61.47;100052.06;5057914;28;45483;-49
2022/03/30 01:48:45;;;;;;;;;68.00;50.50;;;;;13.92;61.54;100044.72;5057577;28;45191;-46
2022/03/30 01:51:10;;;;;;;;;65.25;49.00;;;;;13.95;61.38;100043.53;5057856;28;45479;-46
2022/03/30 01:53:36;;;;;;;;;65.50;47.25;;;;;13.95;61.50;100038.19;5058014;28;45222;-48
2022/03/30 01:56:01;;;;;;;;;62.50;46.00;;;;;13.98;61.54;100038.59;5058037;28;45320;-47
2022/03/30 01:58:26;;;;;;;;;64.00;49.00;;;;;13.93;61.43;100035.66;5057807;28;45342;-46
2022/03/30 02:00:52;;;;;;;;;62.50;47.25;;;;;13.96;60.94;100048.69;5057546;28;45430;-49
2022/03/30 02:03:17;;;;;;;;;65.50;48.00;;;;;13.96;61.52;100042.50;5057403;28;45336;-49
2022/03/30 02:05:42;;;;;;;;;60.50;46.50;;;;;13.90;61.37;100024.50;5057977;28;45390;-48
2022/03/30 02:08:08;;;;;;;;;69.75;48.75;;;;;13.88;62.12;100029.22;5056589;28;45289;-48
2022/03/30 02:10:33;;;;;;;;;69.75;49.00;;;;;13.85;62.45;100024.25;5057626;28;45284;-48
2022/03/30 02:12:59;;;;;;;;;70.25;49.25;;;;;13.79;62.16;100025.00;5057582;28;45528;-50
2022/03/30 02:15:25;;;;;;;;;61.00;44.00;;;;;13.77;61.79;100025.16;5057448;28;45392;-49
2022/03/30 02:17:51;;;;;;;;;65.50;50.00;;;;;13.65;62.36;100015.94;5057312;28;47205;-50
2022/03/30 02:20:16;;;;;;;;;60.00;45.50;;;;;13.66;62.68;100022.97;5057326;28;45313;-49
2022/03/30 02:22:42;;;;;;;;;67.50;52.25;;;;;13.60;62.59;100019.19;5057378;28;45411;-47
2022/03/30 02:25:09;;;;;;;;;67.25;51.00;;;;;13.54;62.37;100003.06;5057484;28;45508;-48
2022/03/30 02:27:35;;;;;;;;;57.75;47.00;;;;;13.53;62.65;100006.75;5057016;28;47304;-49
2022/03/30 02:30:00;;;;;;;;;70.00;51.25;;;;;13.45;63.01;100008.50;5057210;28;45335;-52
2022/03/30 02:32:26;;;;;;;;;59.75;47.25;;;;;13.37;62.99;99997.91;5057079;28;45366;-50
2022/03/30 02:34:51;;;;;;;;;66.50;50.00;;;;;13.36;63.52;100006.94;5056498;28;45416;-49
2022/03/30 02:37:17;;;;;;;;;68.75;48.50;;;;;13.36;61.95;100003.44;5056273;28;45432;-49
2022/03/30 02:39:43;;;;;;;;;61.25;47.75;;;;;13.32;62.49;99999.47;5057193;28;45299;-51
2022/03/30 02:42:09;;;;;;;;;67.25;50.50;;;;;13.14;62.97;99973.88;5057126;28;45391;-48
2022/03/30 02:44:35;;;;;;;;;65.25;48.50;;;;;13.28;63.48;99996.31;5057187;28;45447;-52
2022/03/30 02:47:01;;;;;;;;;68.25;50.50;;;;;13.26;63.08;99990.31;5056521;28;46085;-47
2022/03/30 02:49:27;;;;;;;;;67.75;49.75;;;;;13.27;64.14;99991.16;5056952;28;45327;-50
2022/03/30 02:51:53;;;;;;;;;71.50;51.25;;;;;13.23;62.79;99996.88;5057101;28;45258;-48
2022/03/30 02:54:19;;;;;;;;;68.25;50.50;;;;;13.21;62.28;99993.50;5057223;28;45388;-48
2022/03/30 02:56:45;;;;;;;;;66.75;50.50;;;;;13.19;63.34;99984.03;5056801;28;46119;-47
2022/03/30 02:59:11;;;;;;;;;67.75;48.00;;;;;13.18;63.54;99987.69;5056694;28;45381;-49
2022/03/30 03:01:37;;;;;;;;;62.50;48.00;;;;;13.16;63.92;99984.41;5057249;28;45445;-49
2022/03/30 03:04:02;;;;;;;;;68.75;51.00;;;;;13.18;63.61;99983.19;5056773;28;45278;-51
2022/03/30 03:06:28;;;;;;;;;68.75;49.25;;;;;13.20;64.48;99980.34;5056666;28;45500;-49
2022/03/30 03:08:53;;;;;;;;;69.75;48.75;;;;;13.21;63.91;99982.81;5056615;28;45337;-50
2022/03/30 03:11:19;;;;;;;;;63.00;48.50;;;;;13.24;63.70;99987.03;5056915;28;45391;-49
2022/03/30 03:13:44;;;;;;;;;67.25;50.00;;;;;13.21;64.01;99980.16;5057058;28;45392;-48
2022/03/30 03:16:12;;;;;;;;;70.25;51.25;;;;;13.27;63.57;99991.16;5056332;28;46348;-48
2022/03/30 03:18:37;;;;;;;;;64.75;51.00;;;;;13.28;64.13;99987.47;5056471;28;45239;-49
2022/03/30 03:21:02;;;;;;;;;68.25;51.25;;;;;13.28;63.65;99982.16;5056582;28;45301;-48
2022/03/30 03:23:28;;;;;;;;;69.75;52.25;;;;;13.31;64.10;99984.44;5056678;28;45287;-50
2022/03/30 03:25:53;;;;;;;;;60.50;47.50;;;;;13.32;63.91;99986.94;5056607;28;45195;-51
2022/03/30 03:28:18;;;;;;;;;64.75;48.25;;;;;13.35;62.81;99975.88;5056362;28;45301;-47
2022/03/30 03:30:44;;;;;;;;;65.25;49.25;;;;;13.36;62.66;99976.72;5056820;28;45292;-46
2022/03/30 03:33:10;;;;;;;;;69.50;48.25;;;;;13.33;63.43;99967.22;5056663;28;45369;-51
2022/03/30 03:35:35;;;;;;;;;66.50;52.00;;;;;13.20;63.43;99954.47;5056292;28;46541;-48
2022/03/30 03:38:03;;;;;;;;;62.50;49.00;;;;;13.23;63.82;99953.28;5056370;28;45163;-48
2022/03/30 03:40:32;;;;;;;;;68.75;50.00;;;;;13.31;63.33;99965.72;5056584;28;45542;-50
2022/03/30 03:42:59;;;;;;;;;65.00;46.50;;;;;13.30;63.61;99966.75;5056720;28;45315;-52
2022/03/30 03:45:25;;;;;;;;;72.00;53.00;;;;;13.26;63.10;99963.59;5056045;28;46406;-50
2022/03/30 03:47:51;;;;;;;;;66.25;52.50;;;;;13.26;63.50;99958.28;5058554;28;45269;-48
2022/03/30 03:50:17;;;;;;;;;66.75;50.50;;;;;13.17;64.31;99944.13;5059935;28;45442;-47
2022/03/30 03:52:43;;;;;;;;;73.25;54.25;;;;;13.23;63.64;99959.47;5059811;28;45504;-47
2022/03/30 03:55:09;;;;;;;;;73.75;51.75;;;;;13.27;64.01;99973.28;5041559;28;46369;-50
2022/03/30 03:57:35;;;;;;;;;66.50;50.75;;;;;13.29;64.00;99962.44;5059574;28;45285;-51
2022/03/30 04:00:01;;;;;;;;;76.50;53.00;;;;;13.28;64.84;99964.28;5041319;28;45347;-46
2022/03/30 04:02:26;;;;;;;;;68.75;52.25;;;;;13.32;64.04;99956.72;5059906;28;45453;-55
2022/03/30 04:04:52;;;;;;;;;65.75;51.00;;;;;13.28;64.15;99947.41;5059092;28;45369;-48
2022/03/30 04:07:17;;;;;;;;;77.25;53.25;;;;;13.34;64.09;99952.84;5059410;28;45358;-49
2022/03/30 04:09:42;;;;;;;;;66.00;51.75;;;;;13.32;63.90;99957.56;5059636;28;45776;-49
2022/03/30 04:12:08;;;;;;;;;69.50;53.75;;;;;13.24;63.94;99944.28;5059562;28;45363;-48
2022/03/30 04:14:34;;;;;;;;;74.75;53.50;;;;;13.28;64.05;99961.59;5059290;28;46219;-50
2022/03/30 04:16:59;;;;;;;;;72.75;55.50;;;;;13.17;63.86;99940.66;5059134;28;45249;-50
2022/03/30 04:19:25;;;;;;;;;81.25;57.00;;;;;13.22;64.07;99946.25;5058252;28;45258;-49
2022/03/30 04:21:51;;;;;;;;;75.75;56.50;;;;;13.26;64.79;99952.09;5059524;28;45187;-51
2022/03/30 04:24:16;;;;;;;;;75.00;55.25;;;;;13.25;64.85;99948.59;5059030;28;46393;-47
2022/03/30 04:26:41;;;;;;;;;75.50;55.25;;;;;13.27;64.42;99948.41;5059299;28;45714;-49
2022/03/30 04:29:07;;;;;;;;;75.00;56.00;;;;;13.29;64.70;99947.22;5059058;28;45424;-50
2022/03/30 04:31:33;;;;;;;;;72.75;55.00;;;;;13.32;64.70;99946.03;5059428;28;45263;-48
2022/03/30 04:33:59;;;;;;;;;72.25;54.00;;;;;13.32;64.52;99949.53;5058933;28;45549;-49
2022/03/30 04:36:25;;;;;;;;;78.50;57.50;;;;;13.27;64.59;99937.72;5058891;28;45155;-46
2022/03/30 04:38:51;;;;;;;;;73.00;53.25;;;;;13.20;64.99;99930.44;5059360;28;45313;-48
2022/03/30 04:41:16;;;;;;;;;72.00;55.00;;;;;13.33;64.61;99937.00;5059133;28;45465;-46
2022/03/30 04:43:42;;;;;;;;;76.75;57.25;;;;;13.32;64.39;99932.69;5059174;28;45334;-49
2022/03/30 04:46:08;;;;;;;;;73.50;54.50;;;;;13.26;63.69;99925.38;5059001;28;45275;-46
2022/03/30 04:48:34;;;;;;;;;77.25;54.75;;;;;13.29;65.13;99925.03;5058678;28;45247;-51
2022/03/30 04:51:00;;;;;;;;;72.00;57.00;;;;;13.22;64.71;99920.41;5059052;28;45285;-50
2022/03/30 04:53:25;;;;;;;;;73.75;54.50;;;;;13.26;65.37;99928.06;5058665;28;45463;-49
2022/03/30 04:55:51;;;;;;;;;71.00;52.75;;;;;13.19;65.39;99927.97;5058844;28;45373;-49
2022/03/30 04:58:16;;;;;;;;;74.50;54.50;;;;;13.22;64.97;99931.09;5057901;28;45269;-48
2022/03/30 05:00:42;;;;;;;;;75.50;55.25;;;;;13.21;64.69;99918.72;5058978;28;45432;-51
2022/03/30 05:03:07;;;;;;;;;76.25;54.75;;;;;13.21;65.14;99924.06;5058515;28;45432;-46
2022/03/30 05:05:33;;;;;;;;;71.25;55.25;;;;;13.16;65.82;99921.13;5058243;28;45341;-48
2022/03/30 05:07:58;;;;;;;;;73.75;56.75;;;;;13.16;65.77;99922.97;5058592;28;45437;-52
2022/03/30 05:10:25;;;;;;;;;79.75;56.25;;;;;13.12;65.83;99922.50;5058746;28;45393;-49
2022/03/30 05:12:51;;;;;;;;;77.75;55.50;;;;;13.14;65.53;99909.78;5058368;28;45498;-48
2022/03/30 05:15:17;;;;;;;;;74.25;56.00;;;;;13.16;65.39;99913.13;5058238;28;45328;-47
2022/03/30 05:17:45;;;;;;;;;74.50;54.75;;;;;13.17;64.94;99901.41;5058394;28;45438;-49
2022/03/30 05:20:14;;;;;;;;;79.75;57.75;;;;;13.16;65.18;99921.13;5058530;28;45662;-46
2022/03/30 05:22:41;;;;;;;;;76.75;56.25;;;;;13.11;65.50;99917.34;5058213;28;46070;-50
2022/03/30 05:25:07;;;;;;;;;74.75;56.50;;;;;13.10;65.39;99919.19;5058105;28;45429;-49
2022/03/30 05:27:33;;;;;;;;;70.75;54.00;;;;;13.10;64.93;99911.16;5058000;28;45399;-49
2022/03/30 05:29:59;;;;;;;;;77.00;57.00;;;;;13.15;65.66;99919.47;5058177;28;45392;-49
2022/03/30 05:32:24;;;;;;;;;78.00;57.25;;;;;13.16;64.91;99923.81;5057795;28;47018;-52
2022/03/30 05:34:50;;;;;;;;;77.75;54.00;;;;;13.18;64.95;99918.25;5057921;28;45315;-49
2022/03/30 05:37:15;;;;;;;;;73.25;54.50;;;;;13.15;64.56;99911.47;5056906;28;45277;-49
2022/03/30 05:39:41;;;;;;;;;79.25;56.50;;;;;13.16;65.37;99915.78;5058400;28;45231;-49
2022/03/30 05:42:12;;;;;;;;;73.00;56.75;;;;;13.14;65.40;99923.13;5058041;28;46443;-50
2022/03/30 05:44:37;;;;;;;;;77.50;57.75;;;;;13.15;64.97;99922.16;5057929;28;45311;-46
2022/03/30 05:47:04;;;;;;;;;78.25;57.00;;;;;13.16;65.61;99915.78;5057268;28;45261;-45
2022/03/30 05:49:29;;;;;;;;;75.50;57.00;;;;;13.17;65.59;99913.94;5057754;28;45387;-47
2022/03/30 05:51:54;;;;;;;;;75.75;56.25;;;;;13.19;64.29;99918.09;5057762;28;45196;-48
2022/03/30 05:54:20;;;;;;;;;73.75;56.00;;;;;13.21;65.26;99920.56;5057870;28;45322;-47
2022/03/30 05:57:00;;;;;;;;;73.00;55.75;;;;;13.22;64.90;99919.56;5057901;28;45411;-45
2022/03/30 05:59:32;;;;;;;;;75.75;56.50;;;;;13.19;65.93;99920.78;5057883;28;45380;-46
2022/03/30 06:01:59;;;;;;;;;77.75;56.75;;;;;13.20;65.71;99917.06;5057003;28;46234;-46
2022/03/30 06:04:25;;;;;;;;;72.75;54.25;;;;;13.25;65.29;99921.06;5057455;28;45349;-47
2022/03/30 06:06:50;;;;;;;;;80.00;60.50;;;;;13.26;65.01;99926.22;5056681;28;45585;-47
2022/03/30 06:09:16;;;;;;;;;78.75;56.00;;;;;13.26;65.45;99928.88;5056867;28;45430;-46
2022/03/30 06:11:42;;;;;;;;;79.50;56.00;;;;;13.26;65.17;99922.72;5057157;28;46685;-46
2022/03/30 06:14:07;;;;;;;;;77.00;57.50;;;;;13.23;66.18;99935.44;5056999;28;45522;-46
2022/03/30 06:16:33;;;;;;;;;73.75;53.25;;;;;13.26;66.30;99928.88;5054365;28;46272;-46
2022/03/30 06:18:59;;;;;;;;;76.50;56.25;;;;;13.27;65.07;99929.72;5056736;28;45570;-47
2022/03/30 06:21:25;;;;;;;;;78.50;56.50;;;;;13.25;65.17;99929.09;5056836;28;46358;-47
2022/03/30 06:23:50;;;;;;;;;78.50;59.00;;;;;13.27;65.74;99943.91;5057241;28;45345;-46
2022/03/30 06:26:16;;;;;;;;;81.25;57.50;;;;;13.23;65.95;99937.25;5057352;28;45369;-45
2022/03/30 06:28:42;;;;;;;;;77.50;57.00;;;;;13.25;65.74;99937.91;5057377;28;45227;-47
2022/03/30 06:31:09;;;;;;;;;84.00;59.25;;;;;13.25;66.40;99935.25;5057055;28;46955;-46
2022/03/30 06:33:35;;;;;;;;;80.50;59.75;;;;;13.25;66.59;99929.91;5057097;28;45381;-46
2022/03/30 06:36:00;;;;;;;;;76.50;56.75;;;;;13.31;66.59;99934.50;5056846;28;45337;-48
2022/03/30 06:38:26;;;;;;;;;79.75;57.25;;;;;13.34;66.06;99938.66;5057323;28;45597;-47
2022/03/30 06:40:51;;;;;;;;;84.25;58.25;;;;;13.35;66.26;99930.44;5056845;28;46979;-47
2022/03/30 06:43:17;;;;;;;;;83.25;59.25;;;;;13.39;65.52;99933.59;5057007;28;45252;-47
2022/03/30 06:45:44;;;;;;;;;76.00;57.00;;;;;13.41;65.92;99935.06;5057107;28;45224;-47
2022/03/30 06:48:11;;;;;;;;;78.25;58.75;;;;;13.38;66.83;99932.75;5057234;28;45318;-46
2022/03/30 06:50:36;;;;;;;;;83.50;56.25;;;;;13.36;66.64;99939.31;5056680;28;46272;-46
2022/03/30 06:53:03;;;;;;;;;77.00;56.00;;;;;13.39;66.34;99937.09;5056305;28;45224;-46
2022/03/30 06:55:29;;;;;;;;;76.50;58.50;;;;;13.44;66.42;99936.53;5056840;28;45350;-46
2022/03/30 06:57:54;;;;;;;;;81.00;59.50;;;;;13.47;66.63;99941.50;5039120;28;45487;-46
2022/03/30 07:00:19;;;;;;;;;79.00;58.00;;;;;13.45;65.86;99946.22;5056759;28;46233;-48
2022/03/30 07:02:45;;;;;;;;;80.00;57.75;;;;;13.45;66.14;99940.88;5056827;28;45416;-46
2022/03/30 07:05:10;;;;;;;;;74.50;57.00;;;;;13.32;66.10;99930.84;5056816;28;45483;-47
2022/03/30 07:10:23;;;;;;;;;80.00;58.25;;;;;13.43;67.19;99946.38;5056623;28;45627;-46
2022/03/30 07:12:50;;;;;;;;;74.25;57.25;;;;;13.37;66.93;99932.97;5056543;28;45429;-47
2022/03/30 07:15:17;;;;;;;;;78.50;58.25;;;;;13.42;67.01;99946.59;5056372;28;45452;-50
2022/03/30 07:17:54;;;;;;;;;76.50;57.00;;;;;13.42;67.13;99935.91;5056912;28;45284;-46
2022/03/30 07:20:22;;;;;;;;;76.50;57.00;;;;;13.37;67.85;99935.63;5038427;28;48049;-47
2022/03/30 07:22:49;;;;;;;;;77.75;55.00;;;;;13.43;66.62;99940.22;5058911;28;45395;-49
2022/03/30 07:25:16;;;;;;;;;76.50;55.00;;;;;13.46;67.32;99939.84;5060138;28;45375;-47
2022/03/30 07:27:45;;;;;;;;;79.00;57.00;;;;;13.47;67.12;99941.50;5060342;28;45371;-47
2022/03/30 07:30:12;;;;;;;;;77.50;57.75;;;;;13.46;67.42;99937.19;5059782;28;45478;-49
2022/03/30 07:32:39;;;;;;;;;79.50;57.75;;;;;13.46;67.31;99942.53;5059996;28;45448;-46
2022/03/30 07:35:10;;;;;;;;;71.50;54.00;;;;;13.43;67.08;99940.22;5059959;28;45342;-46
2022/03/30 07:37:38;;;;;;;;;73.75;54.25;;;;;13.38;66.17;99935.44;5059957;28;45404;-46
2022/03/30 07:40:05;;;;;;;;;75.00;55.00;;;;;13.36;66.49;99939.31;5059586;28;45373;-46
2022/03/30 07:42:31;;;;;;;;;73.75;55.75;;;;;13.29;66.63;99933.88;5059641;28;45373;-46
2022/03/30 07:44:56;;;;;;;;;76.00;57.75;;;;;13.28;67.26;99934.06;5059692;28;45612;-46
2022/03/30 07:47:22;;;;;;;;;67.25;49.25;;;;;13.29;66.55;99941.88;5060080;28;45255;-48
2022/03/30 07:49:48;;;;;;;;;77.75;56.50;;;;;13.25;66.50;99939.78;5059636;28;46117;-47
2022/03/30 07:52:15;;;;;;;;;69.00;53.25;;;;;13.23;66.77;99939.94;5059399;28;45290;-46
2022/03/30 07:54:41;;;;;;;;;73.25;54.50;;;;;13.21;67.10;99942.75;5058740;28;45339;-47
2022/03/30 07:57:07;;;;;;;;;74.75;55.00;;;;;13.17;67.05;99938.81;5059780;28;45442;-46
2022/03/30 07:59:33;;;;;;;;;76.50;56.25;;;;;13.14;66.96;99933.00;5059496;28;45421;-47
2022/03/30 08:01:58;;;;;;;;;79.00;56.75;;;;;13.15;67.62;99940.84;5059486;28;45449;-46
2022/03/30 08:04:24;;;;;;;;;78.00;54.50;;;;;13.16;67.60;99934.47;5059623;28;45525;-48
2022/03/30 08:06:50;;;;;;;;;73.50;56.75;;;;;13.14;68.65;99936.50;5059764;28;45369;-59
2022/03/30 08:09:16;;;;;;;;;77.50;55.50;;;;;13.13;68.23;99942.84;5059253;28;46477;-46
2022/03/30 08:11:41;;;;;;;;;77.50;54.75;;;;;13.14;69.27;99943.69;5040923;28;45241;-47
2022/03/30 08:14:06;;;;;;;;;76.50;57.00;;;;;13.15;69.14;99945.34;5059494;28;45152;-45
2022/03/30 08:16:33;;;;;;;;;77.75;55.50;;;;;13.13;68.71;99948.19;5059399;28;45282;-47
2022/03/30 08:18:59;;;;;;;;;71.25;54.25;;;;;13.06;69.27;99947.28;5059013;28;45555;-46
2022/03/30 08:24:09;;;;;;;;;76.25;53.00;;;;;13.19;68.84;99950.16;5059188;28;45293;-48
2022/03/30 08:26:35;;;;;;;;;81.00;57.00;;;;;13.20;68.51;99941.13;5041367;28;45488;-46
2022/03/30 08:29:00;;;;;;;;;71.75;56.50;;;;;13.22;69.01;99956.94;5058385;28;45302;-45
2022/03/30 08:31:26;;;;;;;;;73.00;53.25;;;;;13.22;68.75;99943.59;5059028;28;45412;-46
2022/03/30 08:33:51;;;;;;;;;69.50;54.75;;;;;13.29;68.60;99954.41;5059195;28;45286;-48
2022/03/30 08:36:17;;;;;;;;;66.25;53.00;;;;;13.29;68.69;99944.56;5059124;28;45314;-46
2022/03/30 08:38:42;;;;;;;;;76.50;54.75;;;;;13.28;68.78;99936.75;5058735;28;45420;-47
2022/03/30 08:41:09;;;;;;;;;74.75;54.00;;;;;12.98;68.52;99881.44;5058850;28;45914;-46
2022/03/30 08:43:35;;;;;;;;;71.50;54.25;;;;;13.24;69.09;99925.59;5059077;28;45406;-46
2022/03/30 08:46:02;;;;;;;;;74.00;54.75;;;;;13.29;68.80;99933.88;5059119;28;45203;-46
2022/03/30 08:48:28;;;;;;;;;72.25;53.25;;;;;13.33;68.89;99934.34;5058513;28;47178;-47
2022/03/30 08:50:54;;;;;;;;;75.00;54.25;;;;;13.22;68.79;99923.09;5058803;28;45332;-45
2022/03/30 08:53:21;;;;;;;;;79.50;57.25;;;;;13.27;68.09;99932.38;5058532;28;45460;-47
2022/03/30 08:55:46;;;;;;;;;78.25;57.50;;;;;13.26;69.36;99934.22;5058946;28;45277;-46
2022/03/30 08:58:12;;;;;;;;;75.25;54.25;;;;;13.26;69.51;99938.75;5058555;28;46366;-46
2022/03/30 09:00:38;;;;;;;;;70.25;51.50;;;;;13.29;69.37;99941.06;5058266;28;45464;-46
2022/03/30 09:03:04;;;;;;;;;89.75;64.75;;;;;13.27;68.89;99937.72;5058758;28;45209;-46
2022/03/30 09:05:32;;;;;;;;;89.75;59.75;;;;;13.33;69.10;99929.00;5057962;28;46041;-45
2022/03/30 09:08:11;;;;;;;;;77.75;56.75;;;;;13.20;68.66;99918.94;5058111;28;46183;-48
2022/03/30 09:10:37;;;;;;;;;80.00;58.50;;;;;13.33;68.98;99934.34;5058336;28;45433;-45
2022/03/30 09:13:05;;;;;;;;;91.25;64.75;;;;;13.30;68.74;99937.38;5058169;28;45593;-47
2022/03/30 09:15:32;;;;;;;;;82.50;60.00;;;;;13.35;68.86;99940.31;5058474;28;45250;-45
2022/03/30 09:18:03;;;;;;;;;89.75;58.00;;;;;13.35;68.55;99942.97;5058285;28;45351;-45
2022/03/30 09:20:29;;;;;;;;;82.75;60.00;;;;;13.36;68.22;99950.00;5058397;28;45294;-46
2022/03/30 09:22:57;;;;;;;;;80.00;57.50;;;;;13.40;68.96;99954.78;5057887;28;45262;-45
2022/03/30 09:25:27;;;;;;;;;82.25;58.00;;;;;13.46;68.69;99946.03;5058567;28;45331;-46
2022/03/30 09:27:55;;;;;;;;;76.75;56.75;;;;;13.53;68.50;99945.31;5057980;28;46412;-46
2022/03/30 09:30:21;;;;;;;;;83.00;60.75;;;;;13.48;68.47;99927.13;5057857;28;45288;-46
2022/03/30 09:32:49;;;;;;;;;76.50;57.00;;;;;13.78;68.50;99943.13;5057382;28;45306;-46
2022/03/30 09:35:30;;;;;;;;;78.00;55.25;;;;;14.07;67.85;99935.03;5057997;28;45360;-50
2022/03/30 09:38:04;;;;;;;;;73.75;56.00;;;;;14.52;66.60;99933.06;5057153;28;45275;-45
2022/03/30 09:40:37;;;;;;;;;73.50;53.25;;;;;15.08;65.57;99938.44;5058193;28;45604;-45
2022/03/30 09:43:19;;;;;;;;;80.00;59.25;;;;;15.70;64.17;99926.88;5058111;28;45367;-45
2022/03/30 09:45:46;;;;;;;;;74.50;55.00;;;;;16.02;62.91;99924.50;5057380;28;45571;-47
2022/03/30 09:48:15;;;;;;;;;69.75;50.50;;;;;16.13;61.97;99925.75;5057509;28;46237;-48
2022/03/30 09:50:43;;;;;;;;;70.75;51.50;;;;;16.12;60.95;99916.06;5057739;28;45220;-49
2022/03/30 09:53:10;;;;;;;;;69.50;51.25;;;;;16.19;60.18;99927.66;5057726;28;45413;-48
2022/03/30 09:55:36;;;;;;;;;65.50;47.75;;;;;16.20;59.83;99934.66;5057714;28;45440;-47
2022/03/30 09:58:06;;;;;;;;;67.00;49.75;;;;;16.06;59.91;99925.75;5057461;28;45414;-46
2022/03/30 10:00:32;;;;;;;;;71.50;53.50;;;;;15.91;60.39;99933.13;5057736;28;45349;-47
2022/03/30 10:02:57;;;;;;;;;68.25;50.25;;;;;15.76;61.33;99933.31;5057837;28;45350;-48
2022/03/30 10:05:23;;;;;;;;;66.00;51.00;;;;;15.54;61.79;99935.22;5057983;28;45387;-53
2022/03/30 10:07:50;;;;;;;;;74.50;51.00;;;;;15.39;62.85;99932.66;5057142;28;46104;-46
2022/03/30 10:10:19;;;;;;;;;70.75;53.75;;;;;15.26;63.26;99929.09;5057447;28;45352;-45
2022/03/30 10:12:45;;;;;;;;;73.50;54.00;;;;;15.20;63.35;99928.84;5057677;28;45297;-45
2022/03/30 10:15:12;;;;;;;;;68.50;50.00;;;;;15.09;63.73;99912.50;5057635;28;45440;-48
2022/03/30 10:17:38;;;;;;;;;72.25;52.75;;;;;15.14;62.94;99926.97;5057116;28;47179;-45
2022/03/30 10:20:05;;;;;;;;;66.25;51.25;;;;;15.18;62.86;99922.03;5057367;28;45492;-46
2022/03/30 10:23:12;;;;;;;;;73.50;51.50;;;;;15.21;62.69;99914.44;5057458;28;45448;-46
2022/03/30 10:25:44;;;;;;;;;62.25;50.00;;;;;15.30;62.93;99919.63;5057461;28;45669;-46
2022/03/30 10:28:21;;;;;;;;;70.25;53.00;;;;;15.44;62.26;99908.78;5056825;28;46188;-47
2022/03/30 10:30:55;;;;;;;;;71.50;53.00;;;;;15.65;62.19;99907.88;5057147;28;45358;-51
2022/03/30 10:33:29;;;;;;;;;70.50;54.50;;;;;16.03;61.23;99915.44;5057234;28;45376;-49
2022/03/30 10:35:56;;;;;;;;;71.75;53.50;;;;;16.13;60.42;99909.66;5056605;28;45523;-47
2022/03/30 10:38:22;;;;;;;;;77.00;53.50;;;;;16.16;60.25;99912.78;5056788;28;46058;-49
2022/03/30 10:40:47;;;;;;;;;74.25;53.75;;;;;16.26;59.93;99907.00;5056862;28;45391;-48
2022/03/30 10:43:26;;;;;;;;;71.50;53.00;;;;;16.46;59.61;99896.28;5057026;28;45571;-47
2022/03/30 10:46:00;;;;;;;;;69.00;51.50;;;;;16.82;59.00;99892.41;5057391;28;45271;-47
2022/03/30 10:48:29;;;;;;;;;69.50;51.75;;;;;17.13;58.18;99892.56;5056693;28;47268;-48
2022/03/30 10:50:55;;;;;;;;;71.75;53.50;;;;;17.16;57.43;99896.69;5056784;28;45479;-46
2022/03/30 10:53:38;;;;;;;;;68.50;50.00;;;;;17.19;57.07;99890.88;5056991;28;45436;-47
2022/03/30 10:56:09;;;;;;;;;66.25;50.00;;;;;17.10;57.13;99889.47;5057223;28;45372;-46
2022/03/30 10:58:49;;;;;;;;;69.25;51.50;;;;;17.00;57.48;99886.38;5059611;28;45392;-46
2022/03/30 11:01:29;;;;;;;;;59.25;48.50;;;;;16.84;56.65;99882.28;5060354;28;45426;-47
2022/03/30 11:04:22;;;;;;;;;65.00;47.00;;;;;16.66;56.23;99880.19;5060262;28;45458;-48
2022/03/30 11:06:53;;;;;;;;;65.75;49.50;;;;;16.58;57.50;99872.34;5056767;28;45506;-49
2022/03/30 11:09:23;;;;;;;;;69.25;49.00;;;;;16.48;57.12;99878.13;5059793;28;46386;-47
2022/03/30 11:12:00;;;;;;;;;66.75;50.25;;;;;16.27;57.00;99867.59;5060289;28;45359;-49
2022/03/30 11:14:39;;;;;;;;;67.50;47.50;;;;;16.16;57.00;99877.88;5060342;28;45277;-49
2022/03/30 11:17:14;;;;;;;;;63.00;46.50;;;;;16.19;57.06;99868.63;5060165;28;45334;-49
2022/03/30 11:19:54;;;;;;;;;68.25;49.00;;;;;16.23;57.45;99872.53;5060118;28;46369;-47
2022/03/30 11:22:25;;;;;;;;;71.50;52.75;;;;;16.27;57.54;99864.91;5060070;28;45393;-48